sensor_id;sensor_type;location;lat;lon;timestamp;P1;durP1;ratioP1;P2;durP2;ratioP2
53857;SDS011;39763;51.188;6.690;2022-07-06T00:01:18;8.20;;;3.53;;
53857;SDS011;39763;51.188;6.690;2022-07-06T00:02:51;9.85;;;4.07;;
53857;SDS011;39763;51.188;6.690;2022-07-06T00:04:23;8.93;;;3.88;;
53857;SDS011;39763;51.188;6.690;2022-07-06T00:05:55;7.45;;;3.85;;
53857;SDS011;39763;51.188;6.690;2022-07-06T00:07:28;8.70;;;4.10;;
53857;SDS011;39763;51.188;6.690;2022-07-06T00:09:00;9.10;;;3.70;;
53857;SDS011;39763;51.188;6.690;2022-07-06T00:10:32;9.98;;;4.10;;
53857;SDS011;39763;51.188;6.690;2022-07-06T00:12:05;9.88;;;4.13;;
53857;SDS011;39763;51.188;6.690;2022-07-06T00:13:37;9.85;;;4.30;;
53857;SDS011;39763;51.188;6.690;2022-07-06T00:15:09;9.15;;;4.00;;
53857;SDS011;39763;51.188;6.690;2022-07-06T00:16:41;8.75;;;4.03;;
53857;SDS011;39763;51.188;6.690;2022-07-06T00:18:13;8.82;;;4.10;;
53857;SDS011;39763;51.188;6.690;2022-07-06T00:19:45;9.57;;;3.90;;
53857;SDS011;39763;51.188;6.690;2022-07-06T00:21:17;8.13;;;3.90;;
53857;SDS011;39763;51.188;6.690;2022-07-06T00:22:49;9.35;;;4.18;;
53857;SDS011;39763;51.188;6.690;2022-07-06T00:24:22;9.40;;;4.03;;
53857;SDS011;39763;51.188;6.690;2022-07-06T00:25:54;9.70;;;4.10;;
53857;SDS011;39763;51.188;6.690;2022-07-06T00:27:27;8.95;;;4.00;;
53857;SDS011;39763;51.188;6.690;2022-07-06T00:28:59;8.05;;;3.90;;
53857;SDS011;39763;51.188;6.690;2022-07-06T00:30:31;9.50;;;3.88;;
53857;SDS011;39763;51.188;6.690;2022-07-06T00:32:03;10.18;;;4.00;;
53857;SDS011;39763;51.188;6.690;2022-07-06T00:33:35;9.10;;;3.97;;
53857;SDS011;39763;51.188;6.690;2022-07-06T00:35:07;11.02;;;4.20;;
53857;SDS011;39763;51.188;6.690;2022-07-06T00:36:40;9.10;;;4.13;;
53857;SDS011;39763;51.188;6.690;2022-07-06T00:38:12;11.10;;;4.10;;
53857;SDS011;39763;51.188;6.690;2022-07-06T00:39:44;10.68;;;4.10;;
53857;SDS011;39763;51.188;6.690;2022-07-06T00:41:16;9.80;;;4.47;;
53857;SDS011;39763;51.188;6.690;2022-07-06T00:42:49;11.75;;;4.20;;
53857;SDS011;39763;51.188;6.690;2022-07-06T00:44:21;9.32;;;3.95;;
53857;SDS011;39763;51.188;6.690;2022-07-06T00:45:53;9.07;;;4.13;;
53857;SDS011;39763;51.188;6.690;2022-07-06T00:47:25;8.90;;;3.97;;
53857;SDS011;39763;51.188;6.690;2022-07-06T00:48:57;8.10;;;4.20;;
53857;SDS011;39763;51.188;6.690;2022-07-06T00:50:30;9.10;;;4.25;;
53857;SDS011;39763;51.188;6.690;2022-07-06T00:52:03;9.75;;;4.47;;
53857;SDS011;39763;51.188;6.690;2022-07-06T00:53:35;14.68;;;4.93;;
53857;SDS011;39763;51.188;6.690;2022-07-06T00:55:09;12.25;;;4.60;;
53857;SDS011;39763;51.188;6.690;2022-07-06T00:56:41;8.98;;;4.20;;
53857;SDS011;39763;51.188;6.690;2022-07-06T00:58:15;9.07;;;4.53;;
53857;SDS011;39763;51.188;6.690;2022-07-06T00:59:46;11.35;;;4.68;;
53857;SDS011;39763;51.188;6.690;2022-07-06T01:01:18;10.40;;;4.72;;
53857;SDS011;39763;51.188;6.690;2022-07-06T01:02:51;10.60;;;4.53;;
53857;SDS011;39763;51.188;6.690;2022-07-06T01:04:24;10.25;;;4.40;;
53857;SDS011;39763;51.188;6.690;2022-07-06T01:05:57;11.63;;;4.88;;
53857;SDS011;39763;51.188;6.690;2022-07-06T01:07:29;10.50;;;4.40;;
53857;SDS011;39763;51.188;6.690;2022-07-06T01:09:01;9.20;;;4.00;;
53857;SDS011;39763;51.188;6.690;2022-07-06T01:10:34;11.18;;;4.65;;
53857;SDS011;39763;51.188;6.690;2022-07-06T01:12:06;10.40;;;4.50;;
53857;SDS011;39763;51.188;6.690;2022-07-06T01:13:39;10.80;;;4.68;;
53857;SDS011;39763;51.188;6.690;2022-07-06T01:15:12;7.88;;;3.88;;
53857;SDS011;39763;51.188;6.690;2022-07-06T01:16:47;8.80;;;4.32;;
53857;SDS011;39763;51.188;6.690;2022-07-06T01:18:20;9.10;;;3.92;;
53857;SDS011;39763;51.188;6.690;2022-07-06T01:19:52;9.70;;;4.25;;
53857;SDS011;39763;51.188;6.690;2022-07-06T01:21:26;10.00;;;4.10;;
53857;SDS011;39763;51.188;6.690;2022-07-06T01:22:58;12.05;;;4.30;;
53857;SDS011;39763;51.188;6.690;2022-07-06T01:24:30;10.40;;;4.05;;
53857;SDS011;39763;51.188;6.690;2022-07-06T01:26:03;10.05;;;4.70;;
53857;SDS011;39763;51.188;6.690;2022-07-06T01:27:37;8.93;;;4.38;;
53857;SDS011;39763;51.188;6.690;2022-07-06T01:29:10;10.07;;;4.13;;
53857;SDS011;39763;51.188;6.690;2022-07-06T01:30:42;11.57;;;4.88;;
53857;SDS011;39763;51.188;6.690;2022-07-06T01:32:13;9.55;;;4.40;;
53857;SDS011;39763;51.188;6.690;2022-07-06T01:33:46;9.85;;;4.45;;
53857;SDS011;39763;51.188;6.690;2022-07-06T01:35:17;11.43;;;4.45;;
53857;SDS011;39763;51.188;6.690;2022-07-06T01:36:51;9.27;;;4.30;;
53857;SDS011;39763;51.188;6.690;2022-07-06T01:38:24;8.90;;;4.30;;
53857;SDS011;39763;51.188;6.690;2022-07-06T01:39:57;9.15;;;4.45;;
53857;SDS011;39763;51.188;6.690;2022-07-06T01:41:30;10.07;;;3.97;;
53857;SDS011;39763;51.188;6.690;2022-07-06T01:43:01;9.82;;;4.10;;
53857;SDS011;39763;51.188;6.690;2022-07-06T01:44:33;12.02;;;4.78;;
53857;SDS011;39763;51.188;6.690;2022-07-06T01:46:05;8.90;;;4.22;;
53857;SDS011;39763;51.188;6.690;2022-07-06T01:47:37;9.57;;;4.35;;
53857;SDS011;39763;51.188;6.690;2022-07-06T01:49:09;9.15;;;3.95;;
53857;SDS011;39763;51.188;6.690;2022-07-06T01:50:41;11.32;;;4.50;;
53857;SDS011;39763;51.188;6.690;2022-07-06T01:52:15;8.18;;;3.90;;
53857;SDS011;39763;51.188;6.690;2022-07-06T01:53:47;9.77;;;4.38;;
53857;SDS011;39763;51.188;6.690;2022-07-06T01:55:21;9.43;;;3.90;;
53857;SDS011;39763;51.188;6.690;2022-07-06T01:56:53;9.60;;;4.15;;
53857;SDS011;39763;51.188;6.690;2022-07-06T01:58:25;8.77;;;4.28;;
53857;SDS011;39763;51.188;6.690;2022-07-06T01:59:57;8.50;;;4.00;;
53857;SDS011;39763;51.188;6.690;2022-07-06T02:01:31;9.63;;;4.53;;
53857;SDS011;39763;51.188;6.690;2022-07-06T02:03:05;9.55;;;4.28;;
53857;SDS011;39763;51.188;6.690;2022-07-06T02:04:39;10.32;;;4.20;;
53857;SDS011;39763;51.188;6.690;2022-07-06T02:06:11;10.63;;;4.45;;
53857;SDS011;39763;51.188;6.690;2022-07-06T02:07:45;8.85;;;4.30;;
53857;SDS011;39763;51.188;6.690;2022-07-06T02:09:17;9.38;;;3.95;;
53857;SDS011;39763;51.188;6.690;2022-07-06T02:10:49;8.65;;;3.85;;
53857;SDS011;39763;51.188;6.690;2022-07-06T02:12:23;9.80;;;4.10;;
53857;SDS011;39763;51.188;6.690;2022-07-06T02:13:55;10.82;;;4.65;;
53857;SDS011;39763;51.188;6.690;2022-07-06T02:15:27;8.38;;;4.25;;
53857;SDS011;39763;51.188;6.690;2022-07-06T02:16:59;10.90;;;4.57;;
53857;SDS011;39763;51.188;6.690;2022-07-06T02:18:31;10.38;;;4.22;;
53857;SDS011;39763;51.188;6.690;2022-07-06T02:20:04;9.27;;;3.92;;
53857;SDS011;39763;51.188;6.690;2022-07-06T02:21:37;9.70;;;4.50;;
53857;SDS011;39763;51.188;6.690;2022-07-06T02:23:10;9.82;;;4.10;;
53857;SDS011;39763;51.188;6.690;2022-07-06T02:24:42;9.93;;;4.25;;
53857;SDS011;39763;51.188;6.690;2022-07-06T02:26:15;9.05;;;4.10;;
53857;SDS011;39763;51.188;6.690;2022-07-06T02:27:48;9.88;;;4.38;;
53857;SDS011;39763;51.188;6.690;2022-07-06T02:29:20;10.63;;;4.38;;
53857;SDS011;39763;51.188;6.690;2022-07-06T02:30:53;7.75;;;3.90;;
53857;SDS011;39763;51.188;6.690;2022-07-06T02:32:25;8.73;;;3.80;;
53857;SDS011;39763;51.188;6.690;2022-07-06T02:33:58;11.15;;;4.25;;
53857;SDS011;39763;51.188;6.690;2022-07-06T02:35:32;9.38;;;4.20;;
53857;SDS011;39763;51.188;6.690;2022-07-06T02:37:04;8.45;;;3.85;;
53857;SDS011;39763;51.188;6.690;2022-07-06T02:38:38;9.38;;;4.00;;
53857;SDS011;39763;51.188;6.690;2022-07-06T02:40:10;9.25;;;4.35;;
53857;SDS011;39763;51.188;6.690;2022-07-06T02:41:42;9.20;;;3.95;;
53857;SDS011;39763;51.188;6.690;2022-07-06T02:43:14;10.80;;;4.38;;
53857;SDS011;39763;51.188;6.690;2022-07-06T02:44:46;10.07;;;4.13;;
53857;SDS011;39763;51.188;6.690;2022-07-06T02:46:19;9.07;;;4.47;;
53857;SDS011;39763;51.188;6.690;2022-07-06T02:47:51;11.15;;;4.18;;
53857;SDS011;39763;51.188;6.690;2022-07-06T02:49:25;9.95;;;4.53;;
53857;SDS011;39763;51.188;6.690;2022-07-06T02:50:56;10.88;;;4.47;;
53857;SDS011;39763;51.188;6.690;2022-07-06T02:52:30;9.98;;;4.60;;
53857;SDS011;39763;51.188;6.690;2022-07-06T02:54:09;9.60;;;4.63;;
53857;SDS011;39763;51.188;6.690;2022-07-06T02:55:41;11.18;;;5.18;;
53857;SDS011;39763;51.188;6.690;2022-07-06T02:57:13;9.15;;;4.28;;
53857;SDS011;39763;51.188;6.690;2022-07-06T02:58:45;12.13;;;4.85;;
53857;SDS011;39763;51.188;6.690;2022-07-06T03:00:18;9.75;;;4.80;;
53857;SDS011;39763;51.188;6.690;2022-07-06T03:01:50;11.18;;;4.50;;
53857;SDS011;39763;51.188;6.690;2022-07-06T03:03:22;9.57;;;4.57;;
53857;SDS011;39763;51.188;6.690;2022-07-06T03:04:55;10.40;;;4.85;;
53857;SDS011;39763;51.188;6.690;2022-07-06T03:06:28;11.43;;;5.15;;
53857;SDS011;39763;51.188;6.690;2022-07-06T03:07:59;9.00;;;4.63;;
53857;SDS011;39763;51.188;6.690;2022-07-06T03:09:33;10.45;;;4.68;;
53857;SDS011;39763;51.188;6.690;2022-07-06T03:11:05;11.57;;;5.40;;
53857;SDS011;39763;51.188;6.690;2022-07-06T03:12:39;10.98;;;5.07;;
53857;SDS011;39763;51.188;6.690;2022-07-06T03:14:12;13.77;;;5.60;;
53857;SDS011;39763;51.188;6.690;2022-07-06T03:15:47;12.13;;;5.18;;
53857;SDS011;39763;51.188;6.690;2022-07-06T03:17:19;11.55;;;5.10;;
53857;SDS011;39763;51.188;6.690;2022-07-06T03:18:51;11.13;;;4.95;;
53857;SDS011;39763;51.188;6.690;2022-07-06T03:20:23;10.88;;;5.03;;
53857;SDS011;39763;51.188;6.690;2022-07-06T03:21:56;10.85;;;5.15;;
53857;SDS011;39763;51.188;6.690;2022-07-06T03:23:29;9.77;;;5.32;;
53857;SDS011;39763;51.188;6.690;2022-07-06T03:25:02;11.45;;;5.30;;
53857;SDS011;39763;51.188;6.690;2022-07-06T03:26:34;10.60;;;5.10;;
53857;SDS011;39763;51.188;6.690;2022-07-06T03:28:06;11.63;;;4.93;;
53857;SDS011;39763;51.188;6.690;2022-07-06T03:29:38;12.70;;;5.57;;
53857;SDS011;39763;51.188;6.690;2022-07-06T03:31:10;11.80;;;5.55;;
53857;SDS011;39763;51.188;6.690;2022-07-06T03:32:42;11.60;;;5.75;;
53857;SDS011;39763;51.188;6.690;2022-07-06T03:34:15;11.95;;;5.60;;
53857;SDS011;39763;51.188;6.690;2022-07-06T03:35:47;11.82;;;5.13;;
53857;SDS011;39763;51.188;6.690;2022-07-06T03:37:19;11.18;;;5.18;;
53857;SDS011;39763;51.188;6.690;2022-07-06T03:38:50;12.60;;;5.40;;
53857;SDS011;39763;51.188;6.690;2022-07-06T03:40:24;12.35;;;5.47;;
53857;SDS011;39763;51.188;6.690;2022-07-06T03:41:56;10.77;;;5.13;;
53857;SDS011;39763;51.188;6.690;2022-07-06T03:43:28;11.55;;;5.43;;
53857;SDS011;39763;51.188;6.690;2022-07-06T03:45:01;10.43;;;5.05;;
53857;SDS011;39763;51.188;6.690;2022-07-06T03:46:33;11.30;;;5.25;;
53857;SDS011;39763;51.188;6.690;2022-07-06T03:48:06;12.07;;;5.68;;
53857;SDS011;39763;51.188;6.690;2022-07-06T03:49:40;13.05;;;5.60;;
53857;SDS011;39763;51.188;6.690;2022-07-06T03:51:13;10.75;;;5.50;;
53857;SDS011;39763;51.188;6.690;2022-07-06T03:52:45;14.13;;;5.68;;
53857;SDS011;39763;51.188;6.690;2022-07-06T03:54:17;11.00;;;5.18;;
53857;SDS011;39763;51.188;6.690;2022-07-06T03:55:50;12.38;;;5.80;;
53857;SDS011;39763;51.188;6.690;2022-07-06T03:57:42;11.50;;;5.13;;
53857;SDS011;39763;51.188;6.690;2022-07-06T03:59:18;11.25;;;5.70;;
53857;SDS011;39763;51.188;6.690;2022-07-06T04:00:51;12.00;;;5.63;;
53857;SDS011;39763;51.188;6.690;2022-07-06T04:02:23;13.20;;;5.95;;
53857;SDS011;39763;51.188;6.690;2022-07-06T04:03:56;12.77;;;5.63;;
53857;SDS011;39763;51.188;6.690;2022-07-06T04:05:28;12.57;;;5.55;;
53857;SDS011;39763;51.188;6.690;2022-07-06T04:07:01;12.75;;;6.15;;
53857;SDS011;39763;51.188;6.690;2022-07-06T04:08:33;11.55;;;5.22;;
53857;SDS011;39763;51.188;6.690;2022-07-06T04:10:06;12.43;;;5.63;;
53857;SDS011;39763;51.188;6.690;2022-07-06T04:11:40;11.90;;;6.07;;
53857;SDS011;39763;51.188;6.690;2022-07-06T04:13:12;12.43;;;5.57;;
53857;SDS011;39763;51.188;6.690;2022-07-06T04:14:45;11.55;;;5.32;;
53857;SDS011;39763;51.188;6.690;2022-07-06T04:16:16;11.25;;;5.32;;
53857;SDS011;39763;51.188;6.690;2022-07-06T04:17:48;13.10;;;5.53;;
53857;SDS011;39763;51.188;6.690;2022-07-06T04:19:26;13.00;;;5.78;;
53857;SDS011;39763;51.188;6.690;2022-07-06T04:20:58;11.32;;;5.55;;
53857;SDS011;39763;51.188;6.690;2022-07-06T04:22:31;13.20;;;5.55;;
53857;SDS011;39763;51.188;6.690;2022-07-06T04:24:03;12.35;;;5.22;;
53857;SDS011;39763;51.188;6.690;2022-07-06T04:25:37;12.98;;;5.80;;
53857;SDS011;39763;51.188;6.690;2022-07-06T04:27:11;9.52;;;5.40;;
53857;SDS011;39763;51.188;6.690;2022-07-06T04:28:43;12.13;;;5.75;;
53857;SDS011;39763;51.188;6.690;2022-07-06T04:30:15;11.40;;;5.60;;
53857;SDS011;39763;51.188;6.690;2022-07-06T04:31:47;13.70;;;6.20;;
53857;SDS011;39763;51.188;6.690;2022-07-06T04:33:19;10.82;;;5.65;;
53857;SDS011;39763;51.188;6.690;2022-07-06T04:34:53;12.85;;;5.95;;
53857;SDS011;39763;51.188;6.690;2022-07-06T04:36:24;11.35;;;5.55;;
53857;SDS011;39763;51.188;6.690;2022-07-06T04:37:57;11.02;;;5.82;;
53857;SDS011;39763;51.188;6.690;2022-07-06T04:39:29;12.05;;;5.30;;
53857;SDS011;39763;51.188;6.690;2022-07-06T04:41:03;14.75;;;5.55;;
53857;SDS011;39763;51.188;6.690;2022-07-06T04:42:38;10.93;;;5.72;;
53857;SDS011;39763;51.188;6.690;2022-07-06T04:44:10;12.23;;;5.47;;
53857;SDS011;39763;51.188;6.690;2022-07-06T04:45:41;10.07;;;5.30;;
53857;SDS011;39763;51.188;6.690;2022-07-06T04:47:14;11.40;;;5.82;;
53857;SDS011;39763;51.188;6.690;2022-07-06T04:48:46;11.93;;;5.35;;
53857;SDS011;39763;51.188;6.690;2022-07-06T04:50:24;11.13;;;5.50;;
53857;SDS011;39763;51.188;6.690;2022-07-06T04:51:58;12.30;;;5.30;;
53857;SDS011;39763;51.188;6.690;2022-07-06T04:53:31;11.68;;;5.65;;
53857;SDS011;39763;51.188;6.690;2022-07-06T04:55:03;10.13;;;5.05;;
53857;SDS011;39763;51.188;6.690;2022-07-06T04:56:38;11.90;;;5.25;;
53857;SDS011;39763;51.188;6.690;2022-07-06T04:58:11;13.02;;;5.65;;
53857;SDS011;39763;51.188;6.690;2022-07-06T04:59:44;12.23;;;5.40;;
53857;SDS011;39763;51.188;6.690;2022-07-06T05:01:16;11.90;;;5.07;;
53857;SDS011;39763;51.188;6.690;2022-07-06T05:02:48;13.82;;;5.80;;
53857;SDS011;39763;51.188;6.690;2022-07-06T05:04:22;12.20;;;5.75;;
53857;SDS011;39763;51.188;6.690;2022-07-06T05:05:55;12.18;;;5.72;;
53857;SDS011;39763;51.188;6.690;2022-07-06T05:07:27;11.27;;;5.40;;
53857;SDS011;39763;51.188;6.690;2022-07-06T05:09:01;12.90;;;5.43;;
53857;SDS011;39763;51.188;6.690;2022-07-06T05:10:34;11.88;;;5.05;;
53857;SDS011;39763;51.188;6.690;2022-07-06T05:12:07;10.98;;;5.63;;
53857;SDS011;39763;51.188;6.690;2022-07-06T05:13:41;11.82;;;5.43;;
53857;SDS011;39763;51.188;6.690;2022-07-06T05:15:13;12.32;;;5.22;;
53857;SDS011;39763;51.188;6.690;2022-07-06T05:16:44;13.30;;;5.35;;
53857;SDS011;39763;51.188;6.690;2022-07-06T05:18:16;12.20;;;4.95;;
53857;SDS011;39763;51.188;6.690;2022-07-06T05:19:48;10.18;;;5.03;;
53857;SDS011;39763;51.188;6.690;2022-07-06T05:21:20;12.18;;;5.60;;
53857;SDS011;39763;51.188;6.690;2022-07-06T05:22:52;10.15;;;4.88;;
53857;SDS011;39763;51.188;6.690;2022-07-06T05:24:28;10.25;;;5.07;;
53857;SDS011;39763;51.188;6.690;2022-07-06T05:26:00;11.70;;;5.15;;
53857;SDS011;39763;51.188;6.690;2022-07-06T05:27:34;15.57;;;5.38;;
53857;SDS011;39763;51.188;6.690;2022-07-06T05:29:07;11.70;;;4.60;;
53857;SDS011;39763;51.188;6.690;2022-07-06T05:30:39;13.45;;;5.30;;
53857;SDS011;39763;51.188;6.690;2022-07-06T05:32:12;9.70;;;4.80;;
53857;SDS011;39763;51.188;6.690;2022-07-06T05:33:43;10.98;;;4.95;;
53857;SDS011;39763;51.188;6.690;2022-07-06T05:35:15;12.13;;;5.60;;
53857;SDS011;39763;51.188;6.690;2022-07-06T05:37:10;13.05;;;5.63;;
53857;SDS011;39763;51.188;6.690;2022-07-06T05:38:42;13.52;;;5.50;;
53857;SDS011;39763;51.188;6.690;2022-07-06T05:40:15;14.45;;;5.38;;
53857;SDS011;39763;51.188;6.690;2022-07-06T05:41:47;11.15;;;5.05;;
53857;SDS011;39763;51.188;6.690;2022-07-06T05:43:19;12.88;;;4.63;;
53857;SDS011;39763;51.188;6.690;2022-07-06T05:44:55;11.27;;;5.50;;
53857;SDS011;39763;51.188;6.690;2022-07-06T05:46:29;11.40;;;4.88;;
53857;SDS011;39763;51.188;6.690;2022-07-06T05:48:01;10.00;;;4.45;;
53857;SDS011;39763;51.188;6.690;2022-07-06T05:49:52;10.52;;;4.55;;
53857;SDS011;39763;51.188;6.690;2022-07-06T05:51:44;10.18;;;4.63;;
53857;SDS011;39763;51.188;6.690;2022-07-06T05:53:16;12.50;;;5.05;;
53857;SDS011;39763;51.188;6.690;2022-07-06T05:54:54;12.48;;;4.85;;
53857;SDS011;39763;51.188;6.690;2022-07-06T05:56:26;11.27;;;4.65;;
53857;SDS011;39763;51.188;6.690;2022-07-06T05:57:57;14.45;;;4.75;;
53857;SDS011;39763;51.188;6.690;2022-07-06T05:59:31;12.02;;;4.43;;
53857;SDS011;39763;51.188;6.690;2022-07-06T06:01:05;12.20;;;4.80;;
53857;SDS011;39763;51.188;6.690;2022-07-06T06:02:41;8.82;;;3.63;;
53857;SDS011;39763;51.188;6.690;2022-07-06T06:04:17;9.82;;;3.88;;
53857;SDS011;39763;51.188;6.690;2022-07-06T06:05:49;12.23;;;4.05;;
53857;SDS011;39763;51.188;6.690;2022-07-06T06:07:23;13.07;;;4.13;;
53857;SDS011;39763;51.188;6.690;2022-07-06T06:08:55;9.65;;;3.80;;
53857;SDS011;39763;51.188;6.690;2022-07-06T06:10:27;11.10;;;4.22;;
53857;SDS011;39763;51.188;6.690;2022-07-06T06:12:02;10.80;;;4.10;;
53857;SDS011;39763;51.188;6.690;2022-07-06T06:13:35;10.98;;;4.35;;
53857;SDS011;39763;51.188;6.690;2022-07-06T06:15:07;10.55;;;4.18;;
53857;SDS011;39763;51.188;6.690;2022-07-06T06:16:41;8.00;;;3.60;;
53857;SDS011;39763;51.188;6.690;2022-07-06T06:18:13;12.40;;;5.45;;
53857;SDS011;39763;51.188;6.690;2022-07-06T06:19:48;10.88;;;4.00;;
53857;SDS011;39763;51.188;6.690;2022-07-06T06:21:20;8.68;;;3.63;;
53857;SDS011;39763;51.188;6.690;2022-07-06T06:22:52;11.60;;;4.25;;
53857;SDS011;39763;51.188;6.690;2022-07-06T06:24:25;8.60;;;3.58;;
53857;SDS011;39763;51.188;6.690;2022-07-06T06:25:59;12.90;;;3.53;;
53857;SDS011;39763;51.188;6.690;2022-07-06T06:27:31;8.95;;;3.55;;
53857;SDS011;39763;51.188;6.690;2022-07-06T06:29:03;10.13;;;3.92;;
53857;SDS011;39763;51.188;6.690;2022-07-06T06:30:34;10.88;;;3.63;;
53857;SDS011;39763;51.188;6.690;2022-07-06T06:32:08;8.50;;;3.30;;
53857;SDS011;39763;51.188;6.690;2022-07-06T06:33:40;7.38;;;3.20;;
53857;SDS011;39763;51.188;6.690;2022-07-06T06:35:12;8.95;;;3.30;;
53857;SDS011;39763;51.188;6.690;2022-07-06T06:36:44;9.20;;;3.17;;
53857;SDS011;39763;51.188;6.690;2022-07-06T06:38:16;9.45;;;3.38;;
53857;SDS011;39763;51.188;6.690;2022-07-06T06:39:49;8.32;;;3.17;;
53857;SDS011;39763;51.188;6.690;2022-07-06T06:41:20;8.05;;;2.88;;
53857;SDS011;39763;51.188;6.690;2022-07-06T06:42:52;10.15;;;3.45;;
53857;SDS011;39763;51.188;6.690;2022-07-06T06:44:24;8.25;;;3.13;;
53857;SDS011;39763;51.188;6.690;2022-07-06T06:45:56;11.13;;;2.85;;
53857;SDS011;39763;51.188;6.690;2022-07-06T06:47:29;9.45;;;2.70;;
53857;SDS011;39763;51.188;6.690;2022-07-06T06:49:02;11.13;;;2.75;;
53857;SDS011;39763;51.188;6.690;2022-07-06T06:50:34;7.57;;;2.95;;
53857;SDS011;39763;51.188;6.690;2022-07-06T06:52:06;10.55;;;2.88;;
53857;SDS011;39763;51.188;6.690;2022-07-06T06:53:57;9.00;;;2.83;;
53857;SDS011;39763;51.188;6.690;2022-07-06T06:55:29;6.25;;;2.80;;
53857;SDS011;39763;51.188;6.690;2022-07-06T06:57:01;7.07;;;3.00;;
53857;SDS011;39763;51.188;6.690;2022-07-06T06:58:34;9.20;;;3.40;;
53857;SDS011;39763;51.188;6.690;2022-07-06T07:00:26;8.05;;;3.33;;
53857;SDS011;39763;51.188;6.690;2022-07-06T07:01:58;7.63;;;3.05;;
53857;SDS011;39763;51.188;6.690;2022-07-06T07:03:32;8.20;;;3.38;;
53857;SDS011;39763;51.188;6.690;2022-07-06T07:05:04;9.35;;;3.53;;
53857;SDS011;39763;51.188;6.690;2022-07-06T07:06:37;12.40;;;3.13;;
53857;SDS011;39763;51.188;6.690;2022-07-06T07:08:09;11.35;;;3.60;;
53857;SDS011;39763;51.188;6.690;2022-07-06T07:09:41;12.77;;;3.83;;
53857;SDS011;39763;51.188;6.690;2022-07-06T07:11:12;10.35;;;3.95;;
53857;SDS011;39763;51.188;6.690;2022-07-06T07:12:45;9.05;;;3.42;;
53857;SDS011;39763;51.188;6.690;2022-07-06T07:14:18;12.23;;;4.25;;
53857;SDS011;39763;51.188;6.690;2022-07-06T07:15:50;10.43;;;3.67;;
53857;SDS011;39763;51.188;6.690;2022-07-06T07:17:22;9.38;;;3.50;;
53857;SDS011;39763;51.188;6.690;2022-07-06T07:18:56;8.27;;;3.20;;
53857;SDS011;39763;51.188;6.690;2022-07-06T07:20:27;7.47;;;3.50;;
53857;SDS011;39763;51.188;6.690;2022-07-06T07:22:01;9.43;;;3.20;;
53857;SDS011;39763;51.188;6.690;2022-07-06T07:23:34;10.32;;;3.38;;
53857;SDS011;39763;51.188;6.690;2022-07-06T07:25:07;11.40;;;3.65;;
53857;SDS011;39763;51.188;6.690;2022-07-06T07:26:39;13.50;;;3.28;;
53857;SDS011;39763;51.188;6.690;2022-07-06T07:28:11;10.73;;;3.90;;
53857;SDS011;39763;51.188;6.690;2022-07-06T07:29:43;7.43;;;3.10;;
53857;SDS011;39763;51.188;6.690;2022-07-06T07:31:15;8.60;;;3.40;;
53857;SDS011;39763;51.188;6.690;2022-07-06T07:32:47;7.15;;;2.92;;
53857;SDS011;39763;51.188;6.690;2022-07-06T07:34:20;5.95;;;2.60;;
53857;SDS011;39763;51.188;6.690;2022-07-06T07:35:52;7.43;;;2.35;;
53857;SDS011;39763;51.188;6.690;2022-07-06T07:37:23;7.28;;;2.17;;
53857;SDS011;39763;51.188;6.690;2022-07-06T07:38:55;5.78;;;2.30;;
53857;SDS011;39763;51.188;6.690;2022-07-06T07:40:27;8.25;;;2.63;;
53857;SDS011;39763;51.188;6.690;2022-07-06T07:41:59;6.55;;;2.38;;
53857;SDS011;39763;51.188;6.690;2022-07-06T07:43:31;8.68;;;2.35;;
53857;SDS011;39763;51.188;6.690;2022-07-06T07:45:03;6.07;;;2.50;;
53857;SDS011;39763;51.188;6.690;2022-07-06T07:46:35;7.88;;;2.47;;
53857;SDS011;39763;51.188;6.690;2022-07-06T07:48:07;8.45;;;2.40;;
53857;SDS011;39763;51.188;6.690;2022-07-06T07:49:40;7.47;;;2.22;;
53857;SDS011;39763;51.188;6.690;2022-07-06T07:51:12;9.00;;;2.08;;
53857;SDS011;39763;51.188;6.690;2022-07-06T07:52:44;7.95;;;2.35;;
53857;SDS011;39763;51.188;6.690;2022-07-06T07:54:16;6.00;;;2.03;;
53857;SDS011;39763;51.188;6.690;2022-07-06T07:55:48;7.53;;;2.50;;
53857;SDS011;39763;51.188;6.690;2022-07-06T07:57:20;5.85;;;2.25;;
53857;SDS011;39763;51.188;6.690;2022-07-06T07:58:52;5.65;;;2.00;;
53857;SDS011;39763;51.188;6.690;2022-07-06T08:00:29;6.20;;;2.05;;
53857;SDS011;39763;51.188;6.690;2022-07-06T08:02:00;6.45;;;2.10;;
53857;SDS011;39763;51.188;6.690;2022-07-06T08:03:32;5.15;;;2.10;;
53857;SDS011;39763;51.188;6.690;2022-07-06T08:05:06;6.30;;;2.08;;
53857;SDS011;39763;51.188;6.690;2022-07-06T08:06:39;4.93;;;1.90;;
53857;SDS011;39763;51.188;6.690;2022-07-06T08:08:11;6.30;;;2.30;;
53857;SDS011;39763;51.188;6.690;2022-07-06T08:09:42;5.43;;;1.90;;
53857;SDS011;39763;51.188;6.690;2022-07-06T08:11:14;5.03;;;1.83;;
53857;SDS011;39763;51.188;6.690;2022-07-06T08:12:48;6.28;;;2.17;;
53857;SDS011;39763;51.188;6.690;2022-07-06T08:14:20;4.63;;;1.80;;
53857;SDS011;39763;51.188;6.690;2022-07-06T08:15:52;5.32;;;1.92;;
53857;SDS011;39763;51.188;6.690;2022-07-06T08:17:24;7.40;;;1.88;;
53857;SDS011;39763;51.188;6.690;2022-07-06T08:18:56;4.78;;;1.75;;
53857;SDS011;39763;51.188;6.690;2022-07-06T08:20:29;6.13;;;1.83;;
53857;SDS011;39763;51.188;6.690;2022-07-06T08:22:00;6.70;;;2.00;;
53857;SDS011;39763;51.188;6.690;2022-07-06T08:23:38;6.28;;;1.90;;
53857;SDS011;39763;51.188;6.690;2022-07-06T08:25:10;4.05;;;1.60;;
53857;SDS011;39763;51.188;6.690;2022-07-06T08:26:42;8.63;;;1.92;;
53857;SDS011;39763;51.188;6.690;2022-07-06T08:28:13;8.48;;;2.05;;
53857;SDS011;39763;51.188;6.690;2022-07-06T08:29:45;4.05;;;1.83;;
53857;SDS011;39763;51.188;6.690;2022-07-06T08:31:17;4.53;;;1.60;;
53857;SDS011;39763;51.188;6.690;2022-07-06T08:33:09;6.72;;;1.67;;
53857;SDS011;39763;51.188;6.690;2022-07-06T08:34:41;5.82;;;1.80;;
53857;SDS011;39763;51.188;6.690;2022-07-06T08:36:15;5.55;;;1.83;;
53857;SDS011;39763;51.188;6.690;2022-07-06T08:37:47;4.15;;;1.35;;
53857;SDS011;39763;51.188;6.690;2022-07-06T08:39:19;4.53;;;1.60;;
53857;SDS011;39763;51.188;6.690;2022-07-06T08:40:51;5.40;;;2.08;;
53857;SDS011;39763;51.188;6.690;2022-07-06T08:42:23;4.70;;;1.70;;
53857;SDS011;39763;51.188;6.690;2022-07-06T08:43:58;5.50;;;1.70;;
53857;SDS011;39763;51.188;6.690;2022-07-06T08:45:30;3.75;;;1.58;;
53857;SDS011;39763;51.188;6.690;2022-07-06T08:47:05;5.38;;;1.80;;
53857;SDS011;39763;51.188;6.690;2022-07-06T08:48:45;5.05;;;1.77;;
53857;SDS011;39763;51.188;6.690;2022-07-06T08:50:18;5.63;;;1.77;;
53857;SDS011;39763;51.188;6.690;2022-07-06T08:51:53;7.43;;;2.22;;
53857;SDS011;39763;51.188;6.690;2022-07-06T08:53:25;9.18;;;1.48;;
53857;SDS011;39763;51.188;6.690;2022-07-06T08:54:58;4.10;;;1.80;;
53857;SDS011;39763;51.188;6.690;2022-07-06T08:56:31;3.78;;;1.67;;
53857;SDS011;39763;51.188;6.690;2022-07-06T08:58:03;5.43;;;1.73;;
53857;SDS011;39763;51.188;6.690;2022-07-06T08:59:36;4.57;;;1.88;;
53857;SDS011;39763;51.188;6.690;2022-07-06T09:01:09;6.50;;;1.92;;
53857;SDS011;39763;51.188;6.690;2022-07-06T09:02:42;5.28;;;1.63;;
53857;SDS011;39763;51.188;6.690;2022-07-06T09:04:15;6.25;;;2.00;;
53857;SDS011;39763;51.188;6.690;2022-07-06T09:05:48;3.35;;;1.63;;
53857;SDS011;39763;51.188;6.690;2022-07-06T09:07:28;5.35;;;2.40;;
53857;SDS011;39763;51.188;6.690;2022-07-06T09:09:21;6.10;;;2.13;;
53857;SDS011;39763;51.188;6.690;2022-07-06T09:10:55;8.38;;;2.30;;
53857;SDS011;39763;51.188;6.690;2022-07-06T09:12:27;6.63;;;2.58;;
53857;SDS011;39763;51.188;6.690;2022-07-06T09:13:59;7.07;;;2.47;;
53857;SDS011;39763;51.188;6.690;2022-07-06T09:15:31;5.22;;;2.58;;
53857;SDS011;39763;51.188;6.690;2022-07-06T09:17:04;8.50;;;3.15;;